LFRL  Lanvéoc-Poulmic Air Base Airport

Add Bookmark

Lanvéoc/Poulmic, France

Status Useage
Operational Military
Latitude Longitude
48° 16' 54" N 4° 26' 42" W
48.281700 -4.445020
Local (DST + 2) UTC (GMT + 1)
Dec 21, 2014 12:05 Dec 20, 2014 23:05
Sunrise-Sunset Local UTC
Begin Civil Twilight 08:27 07:27
Sunrise 09:04 08:04
Sunset 05:27 16:27
End Civil Twilight 06:04 17:04

Current Weather

METAR Observed MVFR
LFRL 202230Z AUTO 27003KT 9999 OVC028 09/06 Q1036 Sat, Dec 20, 2014 @ 22:30 UTC
(35 Minutes ago)
Marginal Visual Flight Rules
Wind Visibility Clouds Conditions
270° at 3 knots (6 kph) 10 km or more
  • Overcast at 2,800' AGL
  • No significant weather
Temperatures Readings Precipitation
Current Temp 9°C (48°F)
Dewpoint 6°C (43°F)
Humidity 82%
Altimeter 30.59"Hg
Sea Level Pressure 1036mb
Field Elevation 269.03'
None Recorded

Additional weather within a 92.6km radius of LFRL

Map ICAO Location
LFRB 18.5km N (360°)
LFRJ 35km N (038°)
LFRQ 39.8km S (149°)
LFRO 88.9km N (053°)

24 Hour Weather History

Loading
-

24 Hour Weather Graphs

Loading
-

CheckWX.com is intended as a tool to help pilots better visualize weather data. It is not intended as a substitute for an official weather briefing obtained from a Flight Service Station. CheckWX.com does not meet the FAA requirements for an official pre-flight weather briefing. Therefore, it's important that pilots still call and obtain an official FSS pre-flight weather briefing.